Time;durP1;ratioP1;P1;durP2;ratioP2;P2;SDS_P1;SDS_P2;PMS_P1;PMS_P2;Temp;Humidity;BMP_temperature;BMP_pressure;BME280_temperature;BME280_humidity;BME280_pressure;Samples;Min_cycle;Max_cycle;Signal;HPM_P1;HPM_P2
2021/11/30 00:01:33;;;;;;;15.13;8.20;;;4.20;80.30;;;;;;5046703;28;20443;-76
2021/11/30 00:03:59;;;;;;;12.88;7.20;;;4.10;80.50;;;;;;5052178;28;20057;-76
2021/11/30 00:06:26;;;;;;;13.75;8.10;;;4.10;80.70;;;;;;5036717;28;20032;-76
2021/11/30 00:08:58;;;;;;;9.73;6.82;;;4.10;80.70;;;;;;5037354;28;20092;-76
2021/11/30 00:11:23;;;;;;;12.63;8.23;;;4.10;80.60;;;;;;5036602;28;20025;-76
2021/11/30 00:13:50;;;;;;;9.75;6.25;;;4.10;80.90;;;;;;5054815;28;20032;-76
2021/11/30 00:16:16;;;;;;;10.45;6.88;;;4.20;81.00;;;;;;5056768;28;20025;-76
2021/11/30 00:18:45;;;;;;;12.80;7.57;;;4.20;81.10;;;;;;5051755;28;20049;-76
2021/11/30 00:21:12;;;;;;;11.25;6.90;;;4.30;81.20;;;;;;5035425;28;20079;-77
2021/11/30 00:23:38;;;;;;;8.82;5.82;;;4.30;81.00;;;;;;5036701;28;20483;-76
2021/11/30 00:26:05;;;;;;;8.90;5.95;;;4.40;80.80;;;;;;5036763;28;20518;-76
2021/11/30 00:28:32;;;;;;;9.40;5.95;;;4.50;80.60;;;;;;5036961;28;20060;-76
2021/11/30 00:30:57;;;;;;;9.73;6.95;;;4.50;80.60;;;;;;5041290;28;20063;-76
2021/11/30 00:33:23;;;;;;;13.70;6.15;;;4.40;80.80;;;;;;5055295;28;20424;-76
2021/11/30 00:35:51;;;;;;;8.88;6.43;;;4.50;80.80;;;;;;5037828;28;20033;-76
2021/11/30 00:38:18;;;;;;;9.85;5.47;;;4.40;81.00;;;;;;5035198;28;20028;-77
2021/11/30 00:40:46;;;;;;;10.20;6.10;;;4.50;81.10;;;;;;5036146;28;20121;-76
2021/11/30 00:43:19;;;;;;;8.75;5.57;;;4.50;81.00;;;;;;5037124;28;20082;-76
2021/11/30 00:45:52;;;;;;;9.35;5.57;;;4.60;80.90;;;;;;5058192;28;20033;-77
2021/11/30 00:48:22;;;;;;;10.52;5.53;;;4.70;80.90;;;;;;5055120;28;20514;-76
2021/11/30 00:50:51;;;;;;;8.75;6.57;;;4.80;80.50;;;;;;5056060;28;20017;-76
2021/11/30 00:53:18;;;;;;;11.98;6.53;;;4.90;80.40;;;;;;5054154;28;20466;-76
2021/11/30 00:55:43;;;;;;;11.55;5.63;;;4.90;80.20;;;;;;5052068;28;20700;-77
2021/11/30 00:58:09;;;;;;;8.82;5.05;;;4.90;79.80;;;;;;5034602;28;20069;-76
2021/11/30 01:00:36;;;;;;;9.35;6.05;;;4.90;80.20;;;;;;5042535;28;20020;-77
2021/11/30 01:03:04;;;;;;;11.43;6.57;;;5.00;80.20;;;;;;5053096;28;20111;-77
2021/11/30 01:05:30;;;;;;;7.45;5.00;;;5.00;80.10;;;;;;5056179;28;20588;-76
2021/11/30 01:07:56;;;;;;;9.32;6.63;;;5.00;79.90;;;;;;5050823;28;20030;-76
2021/11/30 01:10:22;;;;;;;10.20;7.10;;;5.00;80.00;;;;;;5036106;28;20369;-76
2021/11/30 01:12:48;;;;;;;11.20;6.88;;;5.10;79.90;;;;;;5050930;28;20199;-76
2021/11/30 01:15:18;;;;;;;12.07;6.10;;;5.10;80.00;;;;;;5055909;28;20091;-77
2021/11/30 01:17:43;;;;;;;10.65;6.78;;;5.00;80.10;;;;;;5053896;28;20132;-77
2021/11/30 01:20:11;;;;;;;11.10;6.72;;;5.00;80.00;;;;;;5053263;28;20068;-76
2021/11/30 01:22:38;;;;;;;8.77;5.43;;;5.10;80.10;;;;;;5055293;28;20032;-76
2021/11/30 01:25:05;;;;;;;9.52;6.43;;;5.00;80.00;;;;;;5036503;28;20753;-77
2021/11/30 01:27:30;;;;;;;10.57;6.43;;;5.10;80.10;;;;;;5034374;28;20147;-77
2021/11/30 01:29:57;;;;;;;6.45;5.72;;;5.00;80.10;;;;;;5035975;28;20565;-76
2021/11/30 01:32:22;;;;;;;8.07;6.05;;;5.10;80.20;;;;;;5035915;28;20495;-76
2021/11/30 01:34:48;;;;;;;9.63;5.85;;;5.20;80.00;;;;;;5034976;28;20029;-77
2021/11/30 01:37:16;;;;;;;5.97;5.22;;;5.20;80.00;;;;;;5055278;28;20084;-77
2021/11/30 01:39:43;;;;;;;8.88;5.63;;;5.10;79.90;;;;;;5055507;28;20021;-77
2021/11/30 01:42:12;;;;;;;7.45;5.80;;;5.20;80.30;;;;;;5041113;28;20025;-76
2021/11/30 01:44:43;;;;;;;10.80;6.72;;;5.20;80.00;;;;;;5038777;28;20022;-77
2021/11/30 01:47:22;;;;;;;7.80;5.43;;;5.20;80.20;;;;;;5066081;28;20079;-77
2021/11/30 01:49:49;;;;;;;5.03;4.50;;;5.20;80.00;;;;;;5035530;28;20028;-77
2021/11/30 01:52:14;;;;;;;6.65;5.63;;;5.30;80.00;;;;;;5034034;28;20033;-76
2021/11/30 01:54:41;;;;;;;7.55;5.63;;;5.30;79.90;;;;;;5033934;28;20025;-77
2021/11/30 01:57:10;;;;;;;5.75;4.15;;;5.30;80.00;;;;;;5034964;28;20554;-76
2021/11/30 01:59:37;;;;;;;6.18;4.10;;;5.40;80.30;;;;;;5035172;28;20476;-77
2021/11/30 02:02:03;;;;;;;8.00;4.93;;;5.40;80.10;;;;;;5052738;28;20104;-77
2021/11/30 02:04:29;;;;;;;7.50;4.90;;;5.40;80.40;;;;;;5053906;28;20025;-76
2021/11/30 02:06:55;;;;;;;8.00;5.40;;;5.50;80.40;;;;;;5050881;28;20032;-77
2021/11/30 02:09:20;;;;;;;8.02;4.88;;;5.60;80.20;;;;;;5033780;28;20021;-77
2021/11/30 02:11:47;;;;;;;5.93;4.25;;;5.60;80.30;;;;;;5033025;28;20029;-77
2021/11/30 02:14:13;;;;;;;7.35;4.75;;;5.60;80.00;;;;;;5050262;28;20030;-77
2021/11/30 02:16:39;;;;;;;7.82;4.50;;;5.60;80.20;;;;;;5045995;28;20029;-76
2021/11/30 02:19:05;;;;;;;7.70;5.90;;;5.70;80.10;;;;;;5035147;28;20033;-77
2021/11/30 02:21:35;;;;;;;5.55;4.05;;;5.70;80.10;;;;;;5033450;28;20659;-77
2021/11/30 02:24:04;;;;;;;;;;;5.70;80.10;;;;;;5033808;28;20550;-77
2021/11/30 02:26:32;;;;;;;6.50;4.30;;;5.70;80.00;;;;;;5045511;28;19999;-77
2021/11/30 02:28:58;;;;;;;9.00;4.70;;;5.70;79.90;;;;;;5034475;28;20028;-76
2021/11/30 02:31:30;;;;;;;5.78;5.07;;;5.70;79.90;;;;;;5033215;28;20026;-76
2021/11/30 02:33:57;;;;;;;8.50;5.10;;;5.70;80.00;;;;;;5036213;28;20024;-77
2021/11/30 02:36:25;;;;;;;6.05;5.03;;;5.70;80.00;;;;;;5071074;28;20464;-76
2021/11/30 02:38:52;;;;;;;8.18;4.68;;;5.70;80.20;;;;;;5050932;28;20029;-77
2021/11/30 02:41:20;;;;;;;5.40;4.35;;;5.70;80.20;;;;;;5047150;28;20180;-76
2021/11/30 02:43:46;;;;;;;6.90;4.60;;;5.80;80.20;;;;;;5037026;28;20442;-76
2021/11/30 02:46:41;;;;;;;7.43;4.78;;;5.80;80.20;;;;;;5069262;28;20031;-77
2021/11/30 02:49:09;;;;;;;6.60;4.40;;;5.80;80.50;;;;;;5078471;28;20040;-76
2021/11/30 02:51:37;;;;;;;5.15;4.15;;;5.80;80.40;;;;;;5043306;28;20022;-76
2021/11/30 02:54:09;;;;;;;9.00;5.00;;;5.80;80.30;;;;;;5070316;28;20496;-77
2021/11/30 02:57:05;;;;;;;4.80;3.72;;;5.80;80.30;;;;;;5037395;28;20561;-77
2021/11/30 02:59:34;;;;;;;8.52;4.88;;;5.90;80.20;;;;;;5035984;28;20440;-77
2021/11/30 03:02:10;;;;;;;5.68;3.90;;;5.80;80.50;;;;;;5037040;28;20777;-77
2021/11/30 03:04:36;;;;;;;10.07;5.22;;;5.80;80.50;;;;;;5037052;28;20030;-77
2021/11/30 03:07:02;;;;;;;7.32;4.35;;;5.80;80.90;;;;;;5036354;28;20533;-76
2021/11/30 03:09:30;;;;;;;4.53;3.03;;;5.90;80.60;;;;;;5038550;28;20025;-76
2021/11/30 03:11:56;;;;;;;6.07;4.15;;;5.90;80.80;;;;;;5038379;28;20037;-76
2021/11/30 03:14:24;;;;;;;5.47;4.57;;;5.90;80.80;;;;;;5037208;28;20036;-77
2021/11/30 03:16:50;;;;;;;6.78;3.83;;;6.00;80.60;;;;;;5037001;28;20397;-76
2021/11/30 03:19:17;;;;;;;6.60;4.75;;;6.00;80.70;;;;;;5038317;28;20048;-76
2021/11/30 03:21:44;;;;;;;6.72;4.28;;;6.10;80.50;;;;;;5037986;28;20040;-77
2021/11/30 03:24:09;;;;;;;7.38;4.93;;;6.20;80.50;;;;;;5038018;28;20487;-77
2021/11/30 03:26:35;;;;;;;4.88;3.95;;;6.20;80.50;;;;;;5036133;28;20138;-76
2021/11/30 03:29:01;;;;;;;8.70;4.38;;;6.20;80.30;;;;;;5036346;28;20038;-77
2021/11/30 03:34:08;;;;;;;;;;;6.20;80.30;;;;;;5038110;28;20040;-77
2021/11/30 03:36:35;;;;;;;5.20;4.38;;;6.20;80.20;;;;;;5037708;28;19936;-76
2021/11/30 03:39:05;;;;;;;9.07;5.18;;;6.30;80.20;;;;;;5051163;28;20037;-77
2021/11/30 03:41:33;;;;;;;7.35;4.60;;;6.30;80.00;;;;;;5055674;28;20110;-77
2021/11/30 03:44:00;;;;;;;7.28;4.45;;;6.30;80.00;;;;;;5057465;28;20029;-77
2021/11/30 03:46:26;;;;;;;7.45;4.65;;;6.30;80.10;;;;;;5074093;28;20025;-76
2021/11/30 03:48:53;;;;;;;7.18;5.07;;;6.30;80.20;;;;;;5052219;28;20128;-77
2021/11/30 03:51:18;;;;;;;8.38;4.68;;;6.30;80.30;;;;;;5037453;28;20025;-77
2021/11/30 03:53:44;;;;;;;6.88;4.90;;;6.30;80.20;;;;;;5036226;28;20029;-76
2021/11/30 03:56:10;;;;;;;5.22;4.20;;;6.30;80.40;;;;;;5037350;28;20038;-77
2021/11/30 03:58:36;;;;;;;7.07;5.25;;;6.30;80.30;;;;;;5037446;28;20515;-76
2021/11/30 04:01:02;;;;;;;8.52;5.20;;;6.30;80.30;;;;;;5051590;28;20017;-77
2021/11/30 04:03:31;;;;;;;6.20;4.95;;;6.30;80.30;;;;;;5036159;28;20025;-77
2021/11/30 04:05:56;;;;;;;6.82;4.57;;;6.30;80.20;;;;;;5036488;28;20018;-76
2021/11/30 04:08:22;;;;;;;11.20;4.80;;;6.30;80.30;;;;;;5055408;28;20055;-77
2021/11/30 04:10:48;;;;;;;6.38;4.88;;;6.40;80.20;;;;;;5057079;28;20036;-77
2021/11/30 04:13:14;;;;;;;6.65;4.45;;;6.40;80.20;;;;;;5056982;28;20084;-77
2021/11/30 04:15:40;;;;;;;5.65;4.13;;;6.40;80.50;;;;;;5046258;28;20034;-77
2021/11/30 04:18:05;;;;;;;5.10;4.60;;;6.40;80.50;;;;;;5036806;28;20056;-76
2021/11/30 04:20:31;;;;;;;7.47;5.10;;;6.40;80.50;;;;;;5063995;28;20078;-77
2021/11/30 04:22:57;;;;;;;7.57;4.50;;;6.40;80.50;;;;;;5055189;28;20036;-77
2021/11/30 04:25:23;;;;;;;6.22;4.60;;;6.50;80.40;;;;;;5056786;28;20028;-77
2021/11/30 04:27:49;;;;;;;7.63;4.38;;;6.60;80.40;;;;;;5055388;28;20832;-76
2021/11/30 04:30:14;;;;;;;7.53;4.65;;;6.50;80.20;;;;;;5035607;28;20026;-77
2021/11/30 04:32:40;;;;;;;11.93;4.43;;;6.50;80.10;;;;;;5034942;28;20511;-77
2021/11/30 04:35:08;;;;;;;7.22;3.97;;;6.60;80.40;;;;;;5037298;28;20391;-77
2021/11/30 04:37:33;;;;;;;7.20;4.35;;;6.60;80.30;;;;;;5037985;28;20030;-76
2021/11/30 04:39:59;;;;;;;7.55;4.70;;;6.60;80.20;;;;;;5054902;28;20391;-77
2021/11/30 04:42:30;;;;;;;8.63;4.32;;;6.60;80.30;;;;;;5055269;28;20037;-77
2021/11/30 04:45:05;;;;;;;9.00;4.90;;;6.60;80.30;;;;;;5061385;28;20490;-77
2021/11/30 04:47:34;;;;;;;7.88;4.30;;;6.60;80.20;;;;;;5076750;28;20036;-76
2021/11/30 04:50:04;;;;;;;5.50;4.35;;;6.70;80.20;;;;;;5051544;28;20028;-77
2021/11/30 04:52:31;;;;;;;8.18;4.72;;;6.70;80.10;;;;;;5036053;28;20030;-77
2021/11/30 04:54:57;;;;;;;12.10;5.25;;;6.70;80.00;;;;;;5036441;28;20029;-76
2021/11/30 04:57:23;;;;;;;5.93;4.22;;;6.70;80.10;;;;;;5033926;28;20057;-76
2021/11/30 04:59:49;;;;;;;5.90;4.00;;;6.70;80.20;;;;;;5034765;28;20521;-77
2021/11/30 05:02:15;;;;;;;7.32;4.90;;;6.70;80.20;;;;;;5039343;28;20418;-77
2021/11/30 05:04:42;;;;;;;8.52;4.85;;;6.70;80.00;;;;;;5056130;28;20013;-77
2021/11/30 05:07:08;;;;;;;5.45;4.15;;;6.70;80.20;;;;;;5049285;28;20487;-77
2021/11/30 05:09:34;;;;;;;8.82;4.85;;;6.70;80.30;;;;;;5034780;28;20025;-77
2021/11/30 05:12:00;;;;;;;4.95;3.72;;;6.80;80.20;;;;;;5036181;28;20040;-76
2021/11/30 05:14:26;;;;;;;4.45;3.63;;;6.80;80.20;;;;;;5036113;28;20060;-76
2021/11/30 05:16:51;;;;;;;6.15;4.53;;;6.80;80.30;;;;;;5034043;28;20120;-77
2021/11/30 05:19:17;;;;;;;5.85;3.92;;;6.80;80.40;;;;;;5035835;28;20080;-77
2021/11/30 05:21:43;;;;;;;7.45;4.13;;;6.80;80.40;;;;;;5034525;28;20029;-77
2021/11/30 05:24:10;;;;;;;5.57;4.20;;;6.80;80.30;;;;;;5035904;28;20033;-77
2021/11/30 05:26:36;;;;;;;8.38;4.30;;;6.80;80.40;;;;;;5035842;28;20028;-75
2021/11/30 05:29:04;;;;;;;7.85;4.47;;;6.80;80.40;;;;;;5035850;28;20025;-74
2021/11/30 05:31:30;;;;;;;8.70;5.30;;;6.90;80.30;;;;;;5035598;28;20036;-76
2021/11/30 05:33:56;;;;;;;6.95;4.15;;;6.90;80.30;;;;;;5035711;28;20421;-77
2021/11/30 05:36:22;;;;;;;7.00;3.88;;;6.80;80.50;;;;;;5033900;28;20151;-78
2021/11/30 05:38:48;;;;;;;7.00;3.50;;;6.90;80.50;;;;;;5054190;28;20059;-77
2021/11/30 05:41:14;;;;;;;4.28;3.30;;;6.90;80.60;;;;;;5055431;28;20029;-77
2021/11/30 06:12:24;;;;;;;5.15;3.90;;;5.60;88.00;;;;;;5071649;28;20885;-79
2021/11/30 06:14:50;;;;;;;6.13;3.78;;;5.70;87.60;;;;;;5050526;28;20029;-84
2021/11/30 06:17:54;;;;;;;5.82;4.32;;;6.00;87.40;;;;;;5051215;28;20029;-84
2021/11/30 06:20:20;;;;;;;5.70;3.85;;;6.30;86.50;;;;;;5051142;28;20067;-79
2021/11/30 06:22:46;;;;;;;7.05;4.38;;;6.70;85.40;;;;;;5048387;28;20041;-80
2021/11/30 06:25:12;;;;;;;4.65;4.13;;;6.90;84.80;;;;;;5048391;28;20033;-81
2021/11/30 06:31:25;;;;;;;9.30;5.00;;;7.10;83.90;;;;;;5001910;28;20065;-84
2021/11/30 06:33:51;;;;;;;4.90;3.50;;;7.20;83.70;;;;;;5039344;28;20094;-84
2021/11/30 06:36:16;;;;;;;4.32;3.67;;;7.20;83.70;;;;;;5044364;28;20083;-84
2021/11/30 06:38:49;;;;;;;7.32;4.25;;;7.20;83.70;;;;;;5050166;28;20025;-84
2021/11/30 06:41:16;;;;;;;9.63;4.60;;;7.30;83.60;;;;;;5046391;28;20112;-82
2021/11/30 06:43:42;;;;;;;7.50;4.18;;;7.40;83.30;;;;;;5050129;28;20029;-82
2021/11/30 06:46:15;;;;;;;7.60;4.13;;;7.50;83.20;;;;;;5050642;28;20030;-82
2021/11/30 06:48:41;;;;;;;4.90;3.47;;;7.50;83.10;;;;;;5050792;28;20031;-82
2021/11/30 06:51:07;;;;;;;5.50;3.55;;;7.50;83.30;;;;;;5050015;28;20040;-82
2021/11/30 06:53:34;;;;;;;4.80;3.78;;;7.50;83.60;;;;;;5046307;28;20034;-82
2021/11/30 06:56:04;;;;;;;5.10;3.60;;;7.50;83.50;;;;;;5031682;28;20022;-83
2021/11/30 06:58:30;;;;;;;3.78;2.83;;;7.50;83.60;;;;;;5031691;28;20017;-82
2021/11/30 07:00:56;;;;;;;5.35;4.13;;;7.40;83.90;;;;;;5039981;28;20034;-83
2021/11/30 07:03:22;;;;;;;6.75;4.20;;;7.40;84.10;;;;;;5046849;28;20115;-82
2021/11/30 07:05:55;;;;;;;6.80;4.10;;;7.50;84.00;;;;;;5046139;28;20044;-82
2021/11/30 07:14:23;;;;;;;6.05;3.85;;;7.50;84.30;;;;;;5031697;28;20026;-83
2021/11/30 07:16:49;;;;;;;5.95;3.33;;;7.50;84.60;;;;;;5029912;28;20660;-82
2021/11/30 07:19:15;;;;;;;4.90;3.47;;;7.50;84.90;;;;;;5040925;28;20044;-82
2021/11/30 07:21:42;;;;;;;7.07;4.65;;;7.60;84.80;;;;;;5029547;28;20022;-83
2021/11/30 07:24:08;;;;;;;6.97;3.92;;;7.70;84.80;;;;;;5026747;28;20022;-82
2021/11/30 07:26:34;;;;;;;8.25;4.45;;;7.70;84.80;;;;;;5026115;28;20149;-83
2021/11/30 07:29:01;;;;;;;7.45;4.28;;;7.70;85.10;;;;;;5033003;28;20029;-82
2021/11/30 07:31:39;;;;;;;;;;;;;;;;;;;;;
2021/11/30 07:34:06;;;;;;;9.10;3.72;;;7.70;85.50;;;;;;5017707;28;20028;-82
2021/11/30 07:36:32;;;;;;;7.18;3.90;;;7.60;86.10;;;;;;5016502;28;20101;-80
2021/11/30 07:38:57;;;;;;;7.57;4.20;;;7.70;86.10;;;;;;5017760;28;20060;-83
2021/11/30 07:41:23;;;;;;;6.25;3.72;;;7.60;86.20;;;;;;5017714;28;20109;-83
2021/11/30 07:43:49;;;;;;;5.75;4.28;;;7.70;86.10;;;;;;5027522;28;20029;-83
2021/11/30 07:46:16;;;;;;;6.57;4.13;;;7.70;85.90;;;;;;5049421;28;20028;-82
2021/11/30 07:48:44;;;;;;;8.15;4.70;;;7.70;86.00;;;;;;5055942;28;20029;-83
2021/11/30 07:51:15;;;;;;;7.80;4.55;;;7.80;86.30;;;;;;5055699;28;20036;-83
2021/11/30 07:53:41;;;;;;;7.75;4.72;;;7.80;86.10;;;;;;5056062;28;20453;-83
2021/11/30 07:56:10;;;;;;;6.75;4.03;;;7.80;86.10;;;;;;5049207;28;20029;-83
2021/11/30 07:58:35;;;;;;;4.70;3.35;;;7.80;85.90;;;;;;5017648;28;20028;-83
2021/11/30 08:01:01;;;;;;;8.43;3.85;;;7.80;85.80;;;;;;5016861;28;20022;-83
2021/11/30 08:03:27;;;;;;;7.15;3.60;;;7.80;85.70;;;;;;5032235;28;20511;-82
2021/11/30 08:05:53;;;;;;;8.40;4.32;;;7.80;85.70;;;;;;5032480;28;20033;-83
2021/11/30 08:08:19;;;;;;;8.55;4.80;;;7.90;85.40;;;;;;5068609;28;20034;-83
2021/11/30 08:10:47;;;;;;;5.90;4.63;;;7.90;85.60;;;;;;5033171;28;20092;-83
2021/11/30 08:13:12;;;;;;;6.85;4.18;;;7.90;85.50;;;;;;5017092;28;20041;-83
2021/11/30 08:15:38;;;;;;;9.10;4.85;;;7.90;85.50;;;;;;5031705;28;20022;-81
2021/11/30 08:18:07;;;;;;;6.75;4.45;;;7.90;85.70;;;;;;5016698;28;20040;-83
2021/11/30 08:20:33;;;;;;;6.22;4.13;;;8.00;85.70;;;;;;5016727;28;20443;-83
2021/11/30 08:22:59;;;;;;;7.70;4.47;;;8.10;85.50;;;;;;5016973;28;20037;-83
2021/11/30 08:25:25;;;;;;;4.97;4.22;;;8.10;85.50;;;;;;5030212;28;20113;-83
2021/11/30 08:27:52;;;;;;;8.82;4.93;;;8.10;85.60;;;;;;5031949;28;20026;-83
2021/11/30 08:30:18;;;;;;;7.32;4.35;;;8.20;85.50;;;;;;5015946;28;20080;-83
2021/11/30 08:32:44;;;;;;;10.38;4.82;;;8.10;85.70;;;;;;5031959;28;20021;-84
2021/11/30 08:35:10;;;;;;;9.05;5.18;;;8.20;85.70;;;;;;5014393;28;20026;-83
2021/11/30 08:37:36;;;;;;;7.00;4.43;;;8.20;85.50;;;;;;5016620;28;20032;-81
2021/11/30 08:40:07;;;;;;;8.93;4.78;;;8.20;85.70;;;;;;5031671;28;20018;-83
2021/11/30 08:42:33;;;;;;;7.72;4.72;;;8.20;85.80;;;;;;5031877;28;20018;-83
2021/11/30 08:45:08;;;;;;;7.25;5.15;;;8.20;85.90;;;;;;5039385;28;20017;-83
2021/11/30 08:47:35;;;;;;;10.48;4.07;;;8.20;85.80;;;;;;5039987;28;20099;-83
2021/11/30 08:50:04;;;;;;;7.32;4.72;;;8.30;85.60;;;;;;5016632;28;20500;-83
2021/11/30 08:52:30;;;;;;;7.88;5.18;;;8.20;86.00;;;;;;5015821;28;20072;-83
2021/11/30 08:54:56;;;;;;;8.57;4.60;;;8.30;85.90;;;;;;5016733;28;20018;-83
2021/11/30 08:57:24;;;;;;;8.27;4.47;;;8.20;85.80;;;;;;5016343;28;20084;-83
2021/11/30 08:59:50;;;;;;;9.30;5.40;;;8.30;85.90;;;;;;5031242;28;20025;-83
2021/11/30 09:02:17;;;;;;;11.13;5.35;;;8.30;85.60;;;;;;5016208;28;20026;-83
2021/11/30 09:04:44;;;;;;;8.68;5.80;;;8.40;85.60;;;;;;5030566;28;20036;-83
2021/11/30 09:07:10;;;;;;;12.50;4.80;;;8.40;85.80;;;;;;5031045;28;20037;-83
2021/11/30 09:09:35;;;;;;;9.43;5.38;;;8.50;85.60;;;;;;5047153;28;20022;-83
2021/11/30 09:12:02;;;;;;;6.88;4.90;;;8.60;85.30;;;;;;5016345;28;20081;-83
2021/11/30 09:14:28;;;;;;;8.48;5.97;;;8.60;85.30;;;;;;5015859;28;20113;-83
2021/11/30 09:16:55;;;;;;;10.93;5.57;;;8.60;85.20;;;;;;5016377;28;20057;-83
2021/11/30 09:19:22;;;;;;;12.32;5.95;;;8.60;85.10;;;;;;5015886;28;20069;-83
2021/11/30 09:21:48;;;;;;;11.07;6.03;;;8.60;84.80;;;;;;5015861;28;20034;-83
2021/11/30 09:24:15;;;;;;;10.43;6.28;;;8.70;84.80;;;;;;5034169;28;20098;-83
2021/11/30 09:26:42;;;;;;;13.48;5.85;;;8.90;84.30;;;;;;5023235;28;20113;-83
2021/11/30 09:29:07;;;;;;;8.40;5.53;;;9.00;84.20;;;;;;5030463;28;20034;-83
2021/11/30 09:31:36;;;;;;;8.85;5.43;;;9.10;83.80;;;;;;5030262;28;20037;-83
2021/11/30 09:34:03;;;;;;;8.52;5.07;;;9.20;83.70;;;;;;5015851;28;20029;-83
2021/11/30 09:36:32;;;;;;;11.52;6.13;;;9.30;83.50;;;;;;5015625;28;20026;-83
2021/11/30 09:39:00;;;;;;;8.05;6.13;;;9.30;83.60;;;;;;5015307;28;20077;-83
2021/11/30 09:41:27;;;;;;;6.75;6.00;;;9.60;83.00;;;;;;5014144;28;20044;-83
2021/11/30 09:43:53;;;;;;;7.68;5.22;;;9.80;83.00;;;;;;5025642;28;20104;-83
2021/11/30 09:46:19;;;;;;;8.18;5.55;;;9.90;82.60;;;;;;5047389;28;20059;-83
2021/11/30 09:48:44;;;;;;;8.15;5.35;;;10.10;82.20;;;;;;5055132;28;20025;-83
2021/11/30 09:51:10;;;;;;;10.00;5.28;;;10.30;81.70;;;;;;5039059;28;20034;-83
2021/11/30 09:53:36;;;;;;;6.93;4.68;;;10.30;81.50;;;;;;5015325;28;20056;-83
2021/11/30 09:56:03;;;;;;;6.65;4.75;;;10.20;81.40;;;;;;5015515;28;20104;-83
2021/11/30 09:58:30;;;;;;;7.93;5.25;;;9.90;81.90;;;;;;5015314;28;20384;-83
2021/11/30 10:00:58;;;;;;;8.50;5.90;;;9.80;82.60;;;;;;5015743;28;20041;-83
2021/11/30 10:03:25;;;;;;;7.82;5.03;;;9.80;82.60;;;;;;5015062;28;20022;-83
2021/11/30 10:05:52;;;;;;;8.98;5.53;;;9.80;83.00;;;;;;5014643;28;20022;-83
2021/11/30 10:08:34;;;;;;;7.53;5.47;;;10.10;82.80;;;;;;5015150;28;20014;-83
2021/11/30 10:11:02;;;;;;;8.68;5.75;;;10.20;82.70;;;;;;5013584;28;20056;-83
2021/11/30 10:13:34;;;;;;;10.00;5.97;;;10.40;82.20;;;;;;5024054;28;20030;-83
2021/11/30 10:16:05;;;;;;;10.15;5.97;;;10.50;82.00;;;;;;5015584;28;20404;-83
2021/11/30 10:18:40;;;;;;;9.82;5.35;;;10.50;81.90;;;;;;5015151;28;20132;-83
2021/11/30 10:21:06;;;;;;;8.38;5.13;;;10.50;82.00;;;;;;5015418;28;20121;-83
2021/11/30 10:23:46;;;;;;;10.63;5.47;;;10.40;82.10;;;;;;5018872;28;20049;-83
2021/11/30 10:26:12;;;;;;;9.10;5.63;;;10.30;82.30;;;;;;5034673;28;20470;-83
2021/11/30 10:28:38;;;;;;;13.70;7.05;;;10.30;82.30;;;;;;5034754;28;20037;-83
2021/11/30 10:31:09;;;;;;;8.35;5.65;;;10.30;82.60;;;;;;5016302;28;20041;-83
2021/11/30 10:33:36;;;;;;;8.65;5.32;;;10.30;82.70;;;;;;5014858;28;20511;-83
2021/11/30 10:36:04;;;;;;;10.68;5.82;;;10.30;82.80;;;;;;5014814;28;20510;-83
2021/11/30 10:38:36;;;;;;;10.55;6.45;;;10.30;82.80;;;;;;5013537;28;20022;-83
2021/11/30 10:41:23;;;;;;;10.98;5.82;;;10.30;82.90;;;;;;5023438;28;20107;-83
2021/11/30 10:44:06;;;;;;;12.48;5.53;;;10.30;82.80;;;;;;5024199;28;20018;-83
2021/11/30 10:46:34;;;;;;;9.45;5.05;;;10.40;82.90;;;;;;5052485;28;20506;-83
2021/11/30 10:49:01;;;;;;;8.00;5.85;;;10.40;82.80;;;;;;5046632;28;20079;-84
2021/11/30 10:51:28;;;;;;;10.30;5.70;;;10.50;82.90;;;;;;5014657;28;20053;-83
2021/11/30 10:53:59;;;;;;;12.20;6.03;;;10.50;82.70;;;;;;5014799;28;20380;-83
2021/11/30 10:56:27;;;;;;;10.10;4.95;;;10.60;82.50;;;;;;5029658;28;20034;-83
2021/11/30 10:58:55;;;;;;;7.68;5.07;;;10.60;82.40;;;;;;5050321;28;20096;-83
2021/11/30 11:01:24;;;;;;;7.55;5.30;;;10.70;82.30;;;;;;5018102;28;20564;-83
2021/11/30 11:04:09;;;;;;;10.52;5.57;;;10.80;82.20;;;;;;5018670;28;20464;-83
2021/11/30 11:06:36;;;;;;;6.55;4.68;;;10.90;81.80;;;;;;5018284;28;20097;-83
2021/11/30 11:09:11;;;;;;;9.38;4.70;;;11.00;81.70;;;;;;5032988;28;20089;-83
2021/11/30 11:11:36;;;;;;;7.50;4.38;;;11.10;81.10;;;;;;5017876;28;20068;-82
2021/11/30 11:14:04;;;;;;;8.13;5.22;;;11.00;81.10;;;;;;5018023;28;20079;-83
2021/11/30 11:16:36;;;;;;;6.35;5.03;;;10.90;81.20;;;;;;5037547;28;20032;-83
2021/11/30 11:19:06;;;;;;;8.80;4.95;;;10.90;81.40;;;;;;5070032;28;20033;-83
2021/11/30 11:21:37;;;;;;;9.32;4.78;;;11.00;81.60;;;;;;5069302;28;20029;-83
2021/11/30 11:24:10;;;;;;;6.88;4.63;;;11.20;81.40;;;;;;5034010;28;20022;-83
2021/11/30 11:26:36;;;;;;;7.05;4.30;;;11.30;81.00;;;;;;5036247;28;20071;-83
2021/11/30 11:29:10;;;;;;;11.82;4.95;;;11.50;80.80;;;;;;5037729;28;20017;-83
2021/11/30 11:31:41;;;;;;;8.82;4.82;;;11.70;80.50;;;;;;5027108;28;20381;-82
2021/11/30 11:34:09;;;;;;;6.97;4.60;;;11.80;79.90;;;;;;5017709;28;20060;-83
2021/11/30 11:36:35;;;;;;;7.05;4.38;;;11.80;80.00;;;;;;5032714;28;20053;-83
2021/11/30 11:39:04;;;;;;;7.28;4.13;;;11.80;79.60;;;;;;5017722;28;20088;-83
2021/11/30 11:41:31;;;;;;;7.43;4.55;;;11.80;79.40;;;;;;5017398;28;20030;-83
2021/11/30 11:43:58;;;;;;;9.75;4.32;;;11.90;79.20;;;;;;5028785;28;20045;-83
2021/11/30 11:46:26;;;;;;;8.07;4.15;;;11.80;79.20;;;;;;5054177;28;20117;-83
2021/11/30 11:48:58;;;;;;;6.40;3.92;;;11.90;78.70;;;;;;5055889;28;20372;-83
2021/11/30 11:51:32;;;;;;;5.63;3.40;;;12.00;78.80;;;;;;5044455;28;20117;-83
2021/11/30 11:53:57;;;;;;;5.28;3.47;;;12.10;78.40;;;;;;5017488;28;20508;-83
2021/11/30 11:56:26;;;;;;;6.35;3.83;;;12.20;78.00;;;;;;5017437;28;20038;-83
2021/11/30 11:59:11;;;;;;;8.45;4.68;;;12.20;77.90;;;;;;5017356;28;20049;-83
2021/11/30 12:01:40;;;;;;;7.80;4.65;;;12.20;77.90;;;;;;5017283;28;20515;-83
2021/11/30 12:04:09;;;;;;;7.20;4.45;;;12.30;78.20;;;;;;5017239;28;20384;-83
2021/11/30 12:06:47;;;;;;;7.25;4.72;;;12.30;78.50;;;;;;5017062;28;20475;-84
2021/11/30 12:09:17;;;;;;;8.60;5.18;;;12.30;78.70;;;;;;5017129;28;20105;-83
2021/11/30 12:11:53;;;;;;;9.35;4.47;;;12.30;78.60;;;;;;5017262;28;20417;-84
2021/11/30 12:14:24;;;;;;;9.50;4.63;;;12.30;78.40;;;;;;5033926;28;20037;-84
2021/11/30 12:17:01;;;;;;;;;;;12.30;78.70;;;;;;5036592;28;20036;-83
2021/11/30 12:19:31;;;;;;;6.80;4.30;;;12.40;78.30;;;;;;5036821;28;19909;-83
2021/11/30 12:21:57;;;;;;;7.43;4.53;;;12.50;78.20;;;;;;5034850;28;20033;-83
2021/11/30 12:24:33;;;;;;;7.53;3.85;;;12.50;78.20;;;;;;5036651;28;20038;-83
2021/11/30 12:27:22;;;;;;;5.55;3.45;;;12.50;78.00;;;;;;5036524;28;20504;-83
2021/11/30 12:29:49;;;;;;;4.82;3.42;;;12.50;77.60;;;;;;5034890;28;20026;-83
2021/11/30 12:32:32;;;;;;;6.78;4.05;;;12.50;77.80;;;;;;5017984;28;20107;-83
2021/11/30 12:35:01;;;;;;;7.00;3.13;;;12.50;77.40;;;;;;5034973;28;20064;-83
2021/11/30 12:37:31;;;;;;;6.28;3.28;;;12.50;76.90;;;;;;5021883;28;20559;-83
2021/11/30 12:40:11;;;;;;;6.43;4.03;;;12.50;77.10;;;;;;5016518;28;20085;-83
2021/11/30 12:42:40;;;;;;;4.72;2.97;;;12.60;77.30;;;;;;5016677;28;20038;-83
2021/11/30 12:45:19;;;;;;;6.57;4.25;;;12.60;77.20;;;;;;5060529;28;20041;-82
2021/11/30 12:47:45;;;;;;;2.55;1.60;;;12.50;77.30;;;;;;5036148;28;20026;-82
2021/11/30 12:50:27;;;;;;;2.83;1.38;;;12.50;75.90;;;;;;5016461;28;20384;-83
2021/11/30 12:53:03;;;;;;;4.25;1.38;;;12.50;74.60;;;;;;5016636;28;20037;-83
2021/11/30 12:55:52;;;;;;;4.80;1.38;;;12.60;74.60;;;;;;5016377;28;20022;-83
2021/11/30 12:58:37;;;;;;;3.42;0.93;;;12.60;73.70;;;;;;5031394;28;20113;-83
2021/11/30 13:01:19;;;;;;;3.20;1.05;;;12.60;72.90;;;;;;5016594;28;20105;-83
2021/11/30 13:03:46;;;;;;;2.00;1.15;;;12.50;71.80;;;;;;5016169;28;20488;-83
2021/11/30 13:06:12;;;;;;;3.28;1.65;;;12.50;72.60;;;;;;5015619;28;20357;-83
2021/11/30 13:09:03;;;;;;;2.13;1.02;;;12.40;72.60;;;;;;5014914;28;20064;-83
2021/11/30 13:11:30;;;;;;;4.40;0.90;;;12.50;72.30;;;;;;5035695;28;20107;-83
2021/11/30 13:14:05;;;;;;;3.35;0.90;;;12.50;72.70;;;;;;5030823;28;20069;-83
2021/11/30 13:16:36;;;;;;;5.18;1.10;;;12.40;72.20;;;;;;5016156;28;20044;-83
2021/11/30 13:19:06;;;;;;;3.63;1.02;;;12.50;71.20;;;;;;5016059;28;20029;-83
2021/11/30 13:21:34;;;;;;;5.00;1.15;;;12.40;71.80;;;;;;5014078;28;20041;-83
2021/11/30 13:24:08;;;;;;;3.75;1.20;;;12.50;72.00;;;;;;5015801;28;20026;-83
2021/11/30 13:26:34;;;;;;;1.85;1.20;;;12.40;70.80;;;;;;5015734;28;20026;-83
2021/11/30 13:29:00;;;;;;;1.85;1.13;;;12.40;71.10;;;;;;5015837;28;20026;-83
2021/11/30 13:31:26;;;;;;;3.50;1.38;;;12.50;71.70;;;;;;5015645;28;20053;-83
2021/11/30 13:33:56;;;;;;;2.40;1.48;;;12.50;72.20;;;;;;5016203;28;20370;-83
2021/11/30 13:36:31;;;;;;;4.10;1.70;;;12.50;71.90;;;;;;5015566;28;20092;-83
2021/11/30 13:39:02;;;;;;;4.00;1.30;;;12.50;71.90;;;;;;5016067;28;20054;-83
2021/11/30 13:41:29;;;;;;;2.72;1.40;;;12.50;72.10;;;;;;5030583;28;20065;-83
2021/11/30 13:43:56;;;;;;;4.78;2.30;;;12.50;72.30;;;;;;5021207;28;20105;-83